Time;durP1;ratioP1;P1;durP2;ratioP2;P2;SDS_P1;SDS_P2;PMS_P1;PMS_P2;Temp;Humidity;BMP_temperature;BMP_pressure;BME280_temperature;BME280_humidity;BME280_pressure;Samples;Min_cycle;Max_cycle;Signal;HPM_P1;HPM_P2
2021/12/27 00:01:30;;;;;;;8.03;5.30;;;10.70;47.30;;;;;;5038855;28;20456;-80
2021/12/27 00:03:58;;;;;;;5.50;4.37;;;10.70;47.30;;;;;;5039560;28;20463;-80
2021/12/27 00:06:26;;;;;;;6.63;4.90;;;10.70;47.30;;;;;;5040169;28;20511;-80
2021/12/27 00:08:54;;;;;;;6.17;4.30;;;10.70;47.40;;;;;;5039106;28;20531;-80
2021/12/27 00:11:22;;;;;;;4.73;3.93;;;10.70;47.40;;;;;;5042619;28;20489;-80
2021/12/27 00:13:49;;;;;;;6.80;4.87;;;10.70;47.40;;;;;;5036447;28;20502;-81
2021/12/27 00:16:19;;;;;;;7.23;4.90;;;10.70;47.40;;;;;;5039384;28;20442;-80
2021/12/27 00:18:47;;;;;;;7.87;4.93;;;10.70;47.40;;;;;;5039454;28;20503;-80
2021/12/27 00:21:14;;;;;;;7.23;4.83;;;10.70;47.40;;;;;;5039754;28;20459;-80
2021/12/27 00:23:42;;;;;;;8.10;5.23;;;10.70;47.40;;;;;;5038693;28;20466;-80
2021/12/27 00:26:10;;;;;;;9.07;3.97;;;10.70;47.50;;;;;;5037672;28;20459;-80
2021/12/27 00:28:38;;;;;;;7.70;4.67;;;10.70;47.40;;;;;;5039559;28;20525;-80
2021/12/27 00:31:06;;;;;;;9.43;4.70;;;10.70;47.50;;;;;;5020110;28;20567;-80
2021/12/27 00:33:35;;;;;;;9.67;5.07;;;10.70;47.40;;;;;;5019311;28;20471;-80
2021/12/27 00:36:04;;;;;;;8.90;4.80;;;10.80;47.50;;;;;;5031596;28;20463;-81
2021/12/27 00:38:31;;;;;;;6.03;4.53;;;10.80;47.50;;;;;;5038545;28;20523;-81
2021/12/27 00:40:59;;;;;;;7.97;4.87;;;10.80;47.50;;;;;;5038839;28;20431;-81
2021/12/27 00:43:27;;;;;;;9.20;4.80;;;10.80;47.50;;;;;;5042285;28;21131;-80
2021/12/27 00:45:55;;;;;;;7.53;4.73;;;10.70;47.40;;;;;;5038643;28;20470;-80
2021/12/27 00:48:22;;;;;;;6.63;4.67;;;10.70;47.50;;;;;;5037900;28;20455;-80
2021/12/27 00:50:52;;;;;;;6.70;5.00;;;10.70;47.50;;;;;;5038276;28;20480;-80
2021/12/27 00:53:19;;;;;;;8.30;5.10;;;10.80;47.60;;;;;;5037920;28;20478;-80
2021/12/27 00:55:47;;;;;;;5.60;4.73;;;10.80;47.60;;;;;;5037334;28;20471;-80
2021/12/27 00:58:15;;;;;;;9.50;5.33;;;10.80;47.60;;;;;;5037998;28;20592;-80
2021/12/27 01:00:43;;;;;;;7.80;5.00;;;10.80;47.60;;;;;;5038455;28;20479;-81
2021/12/27 01:03:11;;;;;;;11.73;4.73;;;10.70;47.50;;;;;;5039285;28;20470;-80
2021/12/27 01:05:39;;;;;;;5.50;4.37;;;10.80;47.60;;;;;;5037893;28;20486;-80
2021/12/27 01:08:09;;;;;;;5.83;4.80;;;10.80;47.60;;;;;;5038280;28;20531;-80
2021/12/27 01:10:59;;;;;;;7.30;5.10;;;10.80;47.70;;;;;;5037310;28;20547;-80
2021/12/27 01:13:38;;;;;;;7.80;5.13;;;10.80;47.60;;;;;;5034422;28;20483;-80
2021/12/27 01:16:12;;;;;;;6.13;4.60;;;10.80;47.60;;;;;;5040255;28;20474;-81
2021/12/27 01:18:43;;;;;;;6.67;4.60;;;10.80;47.60;;;;;;5034811;28;20454;-80
2021/12/27 01:21:11;;;;;;;6.00;4.27;;;10.80;47.60;;;;;;5018481;28;20535;-80
2021/12/27 01:23:40;;;;;;;6.37;4.60;;;10.80;47.70;;;;;;5028556;28;20490;-80
2021/12/27 01:26:08;;;;;;;6.33;4.70;;;10.80;47.70;;;;;;5038035;28;20452;-80
2021/12/27 01:28:36;;;;;;;4.97;4.40;;;10.80;47.70;;;;;;5038044;28;20471;-80
2021/12/27 01:31:04;;;;;;;5.53;4.43;;;10.80;47.70;;;;;;5037512;28;20444;-80
2021/12/27 01:33:32;;;;;;;7.30;4.73;;;10.80;47.70;;;;;;5041387;28;20557;-81
2021/12/27 01:36:00;;;;;;;5.27;4.63;;;10.80;47.70;;;;;;5038967;28;20526;-81
2021/12/27 01:38:28;;;;;;;6.50;4.57;;;10.80;47.70;;;;;;5038758;28;20478;-80
2021/12/27 01:40:58;;;;;;;6.50;4.63;;;10.80;47.70;;;;;;5037291;28;20534;-80
2021/12/27 01:43:26;;;;;;;7.03;4.77;;;10.80;47.70;;;;;;5036966;28;20555;-80
2021/12/27 01:45:55;;;;;;;9.00;4.77;;;10.80;47.60;;;;;;5037676;28;20499;-80
2021/12/27 01:48:25;;;;;;;13.07;4.83;;;10.80;47.70;;;;;;5041542;28;20448;-80
2021/12/27 01:50:53;;;;;;;7.43;5.10;;;10.80;47.70;;;;;;5038722;28;20542;-81
2021/12/27 01:53:22;;;;;;;7.30;5.40;;;10.80;47.60;;;;;;5037707;28;20471;-80
2021/12/27 01:55:50;;;;;;;8.10;4.70;;;10.80;47.60;;;;;;5037230;28;20475;-80
2021/12/27 01:58:20;;;;;;;5.30;4.50;;;10.80;47.60;;;;;;5036977;28;20535;-80
2021/12/27 02:00:50;;;;;;;6.93;4.87;;;10.80;47.70;;;;;;5037773;28;20470;-81
2021/12/27 02:03:19;;;;;;;6.60;4.77;;;10.80;47.70;;;;;;5036947;28;20439;-80
2021/12/27 02:05:47;;;;;;;7.57;4.87;;;10.80;47.70;;;;;;5036983;28;20435;-80
2021/12/27 02:08:15;;;;;;;9.37;5.60;;;10.80;47.70;;;;;;5039925;28;20443;-81
2021/12/27 02:10:43;;;;;;;7.70;4.80;;;10.80;47.60;;;;;;5037524;28;20462;-81
2021/12/27 02:13:11;;;;;;;6.93;4.90;;;10.80;47.60;;;;;;5037220;28;20546;-80
2021/12/27 02:15:41;;;;;;;5.77;4.57;;;10.80;47.70;;;;;;5038636;28;20455;-81
2021/12/27 02:18:09;;;;;;;7.40;5.10;;;10.90;47.70;;;;;;5036205;28;20570;-81
2021/12/27 02:20:39;;;;;;;11.83;5.20;;;10.80;47.70;;;;;;5037334;28;20439;-81
2021/12/27 02:23:12;;;;;;;5.17;4.57;;;10.80;47.70;;;;;;5037300;28;20460;-81
2021/12/27 02:25:40;;;;;;;5.47;4.40;;;10.80;47.80;;;;;;5039781;28;20518;-82
2021/12/27 02:28:09;;;;;;;5.73;4.50;;;10.80;47.70;;;;;;5036732;28;20448;-81
2021/12/27 02:30:36;;;;;;;8.80;5.00;;;10.90;47.80;;;;;;5037297;28;20459;-81
2021/12/27 02:33:06;;;;;;;6.30;4.83;;;10.90;47.80;;;;;;5039064;28;20562;-82
2021/12/27 02:35:37;;;;;;;6.00;4.43;;;10.90;47.80;;;;;;5036939;28;20554;-81
2021/12/27 02:38:07;;;;;;;8.17;4.57;;;10.80;47.70;;;;;;5037481;28;20927;-81
2021/12/27 02:40:36;;;;;;;5.97;4.33;;;10.90;47.80;;;;;;5038048;28;20534;-81
2021/12/27 02:43:05;;;;;;;6.30;5.00;;;10.90;47.80;;;;;;5038104;28;20435;-81
2021/12/27 02:45:36;;;;;;;5.87;4.37;;;10.90;47.80;;;;;;5035313;28;20460;-79
2021/12/27 02:48:04;;;;;;;8.50;5.57;;;10.90;47.90;;;;;;5030145;28;20446;-79
2021/12/27 02:50:32;;;;;;;6.57;5.60;;;10.90;47.90;;;;;;5032960;28;20538;-79
2021/12/27 02:53:01;;;;;;;11.10;5.00;;;10.90;47.90;;;;;;5030065;28;20470;-80
2021/12/27 02:55:30;;;;;;;7.73;4.77;;;10.90;47.90;;;;;;5024948;28;20558;-79
2021/12/27 02:57:58;;;;;;;9.00;5.03;;;10.90;47.90;;;;;;5025985;28;20515;-79
2021/12/27 03:00:46;;;;;;;6.13;4.90;;;10.90;47.90;;;;;;5023532;28;20460;-79
2021/12/27 03:03:14;;;;;;;7.00;4.70;;;10.90;47.80;;;;;;5024356;28;20427;-79
2021/12/27 03:05:43;;;;;;;5.50;4.20;;;10.90;47.80;;;;;;5024832;28;20523;-79
2021/12/27 03:08:14;;;;;;;8.00;4.83;;;10.90;47.90;;;;;;5032802;28;20479;-80
2021/12/27 03:10:44;;;;;;;6.43;4.40;;;10.90;47.90;;;;;;5025700;28;20677;-79
2021/12/27 03:13:15;;;;;;;5.47;4.70;;;10.90;47.90;;;;;;5023873;28;20503;-79
2021/12/27 03:15:44;;;;;;;6.53;4.60;;;10.90;47.90;;;;;;5022885;28;20436;-79
2021/12/27 03:18:12;;;;;;;7.30;4.80;;;10.90;47.90;;;;;;5023704;28;20435;-80
2021/12/27 03:20:40;;;;;;;7.03;5.10;;;10.90;47.90;;;;;;5027526;28;20456;-79
2021/12/27 03:23:08;;;;;;;6.40;4.50;;;10.90;47.90;;;;;;5030934;28;20511;-79
2021/12/27 03:25:36;;;;;;;6.50;4.97;;;10.90;47.80;;;;;;5026551;28;20563;-79
2021/12/27 03:28:05;;;;;;;7.33;5.00;;;10.90;47.90;;;;;;5031881;28;20514;-79
2021/12/27 03:30:33;;;;;;;6.00;4.77;;;10.90;47.80;;;;;;5029105;28;20519;-79
2021/12/27 03:33:02;;;;;;;9.33;4.70;;;10.90;47.90;;;;;;5027879;28;21061;-79
2021/12/27 03:35:35;;;;;;;6.37;4.50;;;10.90;47.90;;;;;;5033224;28;20478;-79
2021/12/27 03:38:05;;;;;;;7.50;5.53;;;10.90;47.90;;;;;;5036952;28;20522;-79
2021/12/27 03:40:33;;;;;;;6.27;4.67;;;10.90;47.90;;;;;;5035938;28;20534;-78
2021/12/27 03:43:01;;;;;;;9.03;5.10;;;10.90;47.90;;;;;;5040018;28;20451;-79
2021/12/27 03:45:32;;;;;;;9.23;5.17;;;10.90;47.90;;;;;;5035762;28;20534;-79
2021/12/27 03:48:00;;;;;;;6.10;4.87;;;10.90;47.90;;;;;;5035878;28;20530;-79
2021/12/27 03:50:28;;;;;;;7.83;4.93;;;10.90;47.90;;;;;;5036068;28;20526;-79
2021/12/27 03:52:56;;;;;;;7.63;5.27;;;10.90;47.90;;;;;;5036088;28;20550;-79
2021/12/27 03:55:25;;;;;;;7.83;5.10;;;10.90;48.00;;;;;;5035068;28;20510;-79
2021/12/27 03:57:55;;;;;;;9.57;4.43;;;10.90;47.90;;;;;;5035850;28;20545;-78
2021/12/27 04:00:33;;;;;;;8.90;4.93;;;10.90;47.90;;;;;;5036112;28;21029;-79
2021/12/27 04:03:02;;;;;;;11.80;5.70;;;10.90;47.80;;;;;;5035781;28;20519;-79
2021/12/27 04:05:30;;;;;;;8.33;5.50;;;10.90;47.80;;;;;;5036009;28;20491;-79
2021/12/27 04:08:04;;;;;;;6.50;4.73;;;10.90;47.80;;;;;;5035837;28;20538;-79
2021/12/27 04:10:32;;;;;;;10.17;5.40;;;10.90;47.90;;;;;;5035990;28;20518;-79
2021/12/27 04:13:00;;;;;;;6.57;4.50;;;10.90;47.80;;;;;;5035672;28;20489;-79
2021/12/27 04:15:28;;;;;;;7.20;4.90;;;10.90;47.90;;;;;;5036022;28;20491;-79
2021/12/27 04:17:56;;;;;;;9.03;5.60;;;10.90;47.90;;;;;;5037960;28;20479;-79
2021/12/27 04:20:25;;;;;;;7.87;5.10;;;10.90;47.80;;;;;;5037502;28;20515;-79
2021/12/27 04:22:53;;;;;;;7.20;5.03;;;10.90;47.90;;;;;;5037002;28;20455;-79
2021/12/27 04:25:21;;;;;;;6.97;5.13;;;10.90;47.90;;;;;;5035471;28;20541;-79
2021/12/27 04:27:49;;;;;;;5.20;4.67;;;10.90;47.90;;;;;;5035276;28;20475;-79
2021/12/27 04:30:17;;;;;;;7.23;4.90;;;10.90;47.80;;;;;;5035358;28;20446;-79
2021/12/27 04:32:45;;;;;;;4.97;4.00;;;10.90;47.80;;;;;;5035376;28;20471;-79
2021/12/27 04:35:13;;;;;;;7.60;4.90;;;10.90;47.80;;;;;;5036406;28;20479;-79
2021/12/27 04:37:43;;;;;;;5.80;5.00;;;10.90;47.80;;;;;;5035279;28;20490;-79
2021/12/27 04:40:12;;;;;;;6.10;4.53;;;10.90;47.80;;;;;;5035422;28;20517;-79
2021/12/27 04:42:41;;;;;;;7.97;4.90;;;10.80;47.80;;;;;;5031421;28;20467;-79
2021/12/27 04:45:11;;;;;;;6.73;4.87;;;10.80;47.90;;;;;;5035249;28;20546;-79
2021/12/27 04:47:39;;;;;;;6.87;5.17;;;10.80;47.90;;;;;;5035393;28;20534;-79
2021/12/27 04:50:08;;;;;;;7.17;5.00;;;10.80;48.00;;;;;;5035350;28;20429;-79
2021/12/27 04:52:36;;;;;;;5.63;4.50;;;10.80;47.90;;;;;;5038027;28;20456;-79
2021/12/27 04:55:05;;;;;;;5.93;4.73;;;10.80;47.90;;;;;;5034585;28;20483;-79
2021/12/27 04:57:33;;;;;;;15.53;4.50;;;10.90;48.00;;;;;;5034958;28;20507;-79
2021/12/27 05:00:01;;;;;;;6.03;4.20;;;10.80;47.90;;;;;;5035427;28;20665;-79
2021/12/27 05:02:29;;;;;;;6.80;4.73;;;10.80;47.90;;;;;;5032069;28;20505;-79
2021/12/27 05:04:57;;;;;;;7.70;4.80;;;10.80;48.00;;;;;;5034637;28;20460;-79
2021/12/27 05:07:25;;;;;;;7.80;5.07;;;10.80;48.00;;;;;;5032881;28;20520;-79
2021/12/27 05:09:53;;;;;;;7.63;5.67;;;10.80;48.00;;;;;;5038386;28;20546;-79
2021/12/27 05:12:22;;;;;;;6.50;4.50;;;10.80;48.10;;;;;;5034930;28;20530;-79
2021/12/27 05:14:50;;;;;;;7.90;4.73;;;10.80;48.10;;;;;;5035140;28;20529;-79
2021/12/27 05:17:18;;;;;;;9.43;5.83;;;10.70;48.00;;;;;;5035899;28;20986;-79
2021/12/27 05:19:45;;;;;;;8.47;5.13;;;10.80;48.30;;;;;;5035586;28;20538;-79
2021/12/27 05:22:14;;;;;;;6.43;4.83;;;10.80;48.10;;;;;;5035864;28;20530;-78
2021/12/27 05:24:41;;;;;;;6.93;4.53;;;10.80;48.10;;;;;;5035107;28;20542;-79
2021/12/27 05:27:10;;;;;;;6.90;5.00;;;10.80;48.10;;;;;;5037434;28;20458;-79
2021/12/27 05:29:39;;;;;;;8.50;4.87;;;10.80;48.10;;;;;;5034796;28;20558;-79
2021/12/27 05:32:09;;;;;;;7.00;5.20;;;10.80;48.20;;;;;;5034636;28;20435;-78
2021/12/27 05:34:37;;;;;;;6.80;4.70;;;10.80;48.10;;;;;;5035182;28;20547;-79
2021/12/27 05:37:09;;;;;;;7.47;4.70;;;10.80;48.30;;;;;;5035419;28;20435;-79
2021/12/27 05:39:37;;;;;;;6.50;4.53;;;10.80;48.10;;;;;;5036516;28;20474;-79
2021/12/27 05:42:07;;;;;;;8.97;5.00;;;10.80;48.20;;;;;;5037158;28;20547;-79
2021/12/27 05:44:35;;;;;;;6.27;4.83;;;10.80;48.20;;;;;;5035438;28;20530;-79
2021/12/27 05:47:04;;;;;;;6.83;4.70;;;10.80;48.10;;;;;;5035586;28;20515;-79
2021/12/27 05:49:33;;;;;;;7.07;4.97;;;10.80;48.20;;;;;;5036153;28;20477;-79
2021/12/27 05:52:00;;;;;;;6.63;4.80;;;10.80;48.10;;;;;;5031419;28;20471;-79
2021/12/27 05:54:29;;;;;;;8.93;5.10;;;10.80;48.10;;;;;;5035268;28;20570;-79
2021/12/27 05:56:56;;;;;;;7.10;5.00;;;10.80;48.10;;;;;;5035554;28;20451;-79
2021/12/27 05:59:24;;;;;;;8.70;4.60;;;10.80;48.20;;;;;;5036381;28;20475;-79
2021/12/27 06:01:52;;;;;;;6.40;4.70;;;10.80;48.10;;;;;;5035397;28;20503;-79
2021/12/27 06:04:22;;;;;;;5.70;4.53;;;10.80;48.10;;;;;;5035787;28;20463;-79
2021/12/27 06:06:50;;;;;;;7.20;4.90;;;10.80;48.10;;;;;;5035210;28;20502;-79
2021/12/27 06:09:18;;;;;;;6.40;5.00;;;10.90;48.20;;;;;;5035817;28;20530;-79
2021/12/27 06:11:46;;;;;;;7.60;4.90;;;10.90;48.20;;;;;;5035327;28;20463;-79
2021/12/27 06:14:14;;;;;;;6.43;5.00;;;10.90;48.20;;;;;;5035249;28;20563;-79
2021/12/27 06:16:43;;;;;;;7.80;5.50;;;10.90;48.20;;;;;;5035441;28;20475;-79
2021/12/27 06:19:11;;;;;;;6.30;5.13;;;10.90;48.10;;;;;;5039247;28;20530;-79
2021/12/27 06:21:40;;;;;;;8.33;5.00;;;10.90;48.20;;;;;;5035696;28;20470;-79
2021/12/27 06:24:08;;;;;;;6.70;4.83;;;10.90;48.10;;;;;;5035398;28;20487;-79
2021/12/27 06:26:36;;;;;;;6.70;4.63;;;10.90;48.10;;;;;;5035091;28;20479;-79
2021/12/27 06:29:04;;;;;;;8.90;5.50;;;10.90;48.10;;;;;;5035298;28;20550;-79
2021/12/27 06:31:32;;;;;;;7.03;4.80;;;10.90;48.20;;;;;;5035206;28;20479;-79
2021/12/27 06:34:00;;;;;;;6.60;5.10;;;10.80;48.10;;;;;;5034327;28;20479;-79
2021/12/27 06:36:28;;;;;;;6.93;4.93;;;10.90;48.90;;;;;;5037044;28;20554;-79
2021/12/27 06:38:57;;;;;;;7.27;5.23;;;10.90;48.20;;;;;;5034476;28;20444;-79
2021/12/27 06:41:25;;;;;;;7.50;5.50;;;10.90;48.10;;;;;;5034706;28;20475;-79
2021/12/27 06:43:53;;;;;;;5.53;4.93;;;10.90;48.10;;;;;;5034655;28;21033;-79
2021/12/27 06:46:21;;;;;;;7.73;5.13;;;10.90;48.10;;;;;;5034256;28;21019;-79
2021/12/27 06:48:49;;;;;;;5.63;4.57;;;10.90;48.10;;;;;;5034520;28;20444;-79
2021/12/27 06:51:18;;;;;;;5.70;4.80;;;11.00;48.20;;;;;;5033890;28;20526;-79
2021/12/27 06:53:45;;;;;;;7.30;4.67;;;10.90;48.10;;;;;;5035540;28;20492;-79
2021/12/27 06:56:14;;;;;;;8.70;5.43;;;10.90;48.10;;;;;;5032811;28;20554;-79
2021/12/27 06:58:42;;;;;;;6.90;5.27;;;10.90;48.10;;;;;;5029425;28;20490;-78
2021/12/27 07:01:10;;;;;;;7.73;5.10;;;10.90;48.10;;;;;;5032255;28;20474;-78
2021/12/27 07:03:38;;;;;;;8.83;5.20;;;10.90;48.20;;;;;;5032168;28;20475;-78
2021/12/27 07:06:06;;;;;;;8.00;4.83;;;10.90;48.20;;;;;;5032062;28;20442;-78
2021/12/27 07:08:34;;;;;;;6.40;4.90;;;10.90;48.10;;;;;;5033152;28;20439;-81
2021/12/27 07:11:02;;;;;;;7.03;5.30;;;10.90;48.20;;;;;;5038325;28;20487;-80
2021/12/27 07:13:31;;;;;;;8.10;5.37;;;10.90;48.20;;;;;;5035674;28;20554;-80
2021/12/27 07:15:59;;;;;;;6.43;5.03;;;10.90;48.20;;;;;;5035693;28;20498;-81
2021/12/27 07:18:27;;;;;;;6.60;5.07;;;10.90;48.30;;;;;;5034011;28;20542;-78
2021/12/27 07:20:56;;;;;;;7.03;5.13;;;10.90;48.20;;;;;;5032118;28;20439;-78
2021/12/27 07:23:24;;;;;;;7.50;5.20;;;11.00;48.30;;;;;;5031704;28;20526;-78
2021/12/27 07:25:51;;;;;;;7.20;5.10;;;11.00;48.80;;;;;;5034517;28;20458;-78
2021/12/27 07:28:19;;;;;;;9.37;5.83;;;11.00;48.30;;;;;;5032958;28;20542;-80
2021/12/27 07:30:48;;;;;;;8.10;5.10;;;11.00;48.20;;;;;;5035921;28;20458;-80
2021/12/27 07:33:17;;;;;;;8.00;5.30;;;11.00;48.20;;;;;;5035985;28;20463;-80
2021/12/27 07:35:45;;;;;;;7.80;5.20;;;10.90;48.20;;;;;;5035569;28;20514;-80
2021/12/27 07:38:12;;;;;;;7.93;5.03;;;11.00;48.20;;;;;;5035760;28;20848;-79
2021/12/27 07:40:40;;;;;;;6.10;5.17;;;11.00;48.20;;;;;;5035422;28;20518;-80
2021/12/27 07:54:00;;;;;;;8.43;5.50;;;11.00;48.20;;;;;;5133357;27;20569;-80
2021/12/27 07:56:28;;;;;;;8.87;5.57;;;11.00;48.20;;;;;;5133184;27;20467;-80
2021/12/27 07:58:56;;;;;;;6.93;4.90;;;11.00;48.30;;;;;;5133608;27;20493;-80
2021/12/27 08:01:24;;;;;;;7.00;5.03;;;11.00;48.40;;;;;;5126700;27;20503;-80
2021/12/27 08:03:53;;;;;;;9.37;5.47;;;11.00;48.40;;;;;;5125959;28;20459;-80
2021/12/27 08:06:24;;;;;;;9.07;4.70;;;11.00;48.50;;;;;;5133185;27;20437;-80
2021/12/27 08:08:52;;;;;;;7.30;4.93;;;11.00;48.40;;;;;;5133520;27;20431;-79
2021/12/27 08:11:21;;;;;;;7.20;5.20;;;11.00;48.50;;;;;;5132211;27;20446;-80
2021/12/27 08:13:50;;;;;;;6.87;5.33;;;11.00;48.40;;;;;;5132873;27;20466;-80
2021/12/27 08:16:23;;;;;;;6.27;5.27;;;11.10;48.50;;;;;;5133085;27;20498;-79
2021/12/27 08:18:52;;;;;;;8.27;5.10;;;11.00;48.40;;;;;;5129405;27;20447;-80
2021/12/27 08:21:20;;;;;;;6.07;4.90;;;11.10;48.50;;;;;;5124923;28;20419;-80
2021/12/27 08:23:48;;;;;;;8.60;5.40;;;11.10;48.40;;;;;;5131268;27;20467;-80
2021/12/27 08:26:16;;;;;;;9.27;5.13;;;11.10;48.40;;;;;;5132894;27;20951;-80
2021/12/27 08:28:46;;;;;;;7.43;4.80;;;11.10;48.40;;;;;;5132421;27;20486;-79
2021/12/27 08:31:14;;;;;;;6.13;5.20;;;11.10;48.40;;;;;;5132518;27;20474;-80
2021/12/27 08:33:42;;;;;;;8.67;5.40;;;11.20;48.30;;;;;;5133003;27;20465;-79
2021/12/27 08:36:10;;;;;;;8.70;6.27;;;11.10;48.30;;;;;;5129705;27;20459;-80
2021/12/27 08:38:38;;;;;;;9.80;5.27;;;11.10;48.40;;;;;;5128388;28;20510;-80
2021/12/27 08:41:06;;;;;;;8.23;5.77;;;11.10;48.30;;;;;;5132403;27;20518;-80
2021/12/27 08:43:34;;;;;;;7.97;5.20;;;11.20;48.50;;;;;;5131722;27;20481;-80
2021/12/27 08:46:03;;;;;;;8.60;5.70;;;11.20;48.40;;;;;;5132331;27;20467;-80
2021/12/27 08:48:32;;;;;;;7.17;5.40;;;11.20;48.30;;;;;;5131315;27;20443;-79
2021/12/27 08:50:59;;;;;;;6.50;5.20;;;11.20;48.30;;;;;;5132261;27;20514;-80
2021/12/27 08:53:27;;;;;;;8.07;5.57;;;11.20;48.30;;;;;;5053362;27;20464;-80
2021/12/27 08:55:56;;;;;;;8.23;5.60;;;11.20;48.30;;;;;;5034542;28;20450;-80
2021/12/27 08:58:23;;;;;;;8.73;5.60;;;11.20;48.30;;;;;;5035901;28;20452;-80
2021/12/27 09:00:52;;;;;;;7.53;5.57;;;11.30;48.30;;;;;;5035932;27;20542;-80
2021/12/27 09:03:21;;;;;;;10.33;5.27;;;11.30;48.40;;;;;;5035983;27;20494;-80
2021/12/27 09:05:49;;;;;;;7.73;5.80;;;11.30;48.40;;;;;;5034633;28;20439;-79
2021/12/27 09:08:17;;;;;;;6.00;4.80;;;11.30;48.30;;;;;;5034953;28;20538;-80
2021/12/27 09:10:45;;;;;;;6.47;5.33;;;11.40;48.30;;;;;;5031490;28;20505;-80
2021/12/27 09:13:13;;;;;;;7.03;5.60;;;11.30;48.30;;;;;;5028888;28;20898;-79
2021/12/27 09:15:41;;;;;;;6.23;5.13;;;11.40;48.40;;;;;;5034067;28;20478;-80
2021/12/27 09:18:09;;;;;;;7.93;5.60;;;11.40;48.40;;;;;;5034333;28;20531;-80
2021/12/27 09:20:39;;;;;;;9.20;5.57;;;11.40;48.30;;;;;;5035052;28;20537;-80
2021/12/27 09:23:07;;;;;;;8.30;5.73;;;11.50;48.30;;;;;;5034253;28;20535;-79
2021/12/27 09:25:35;;;;;;;7.47;5.50;;;11.50;48.30;;;;;;5033542;28;20517;-80
2021/12/27 09:28:02;;;;;;;7.57;5.60;;;11.50;48.20;;;;;;5030968;28;20997;-80
2021/12/27 09:30:31;;;;;;;13.23;6.17;;;11.50;48.30;;;;;;5033279;28;20444;-80
2021/12/27 09:32:58;;;;;;;15.13;6.57;;;11.60;48.30;;;;;;5033595;28;20467;-80
2021/12/27 09:35:26;;;;;;;7.77;5.57;;;11.60;48.30;;;;;;5033660;28;20538;-80
2021/12/27 09:37:55;;;;;;;8.47;6.10;;;11.60;48.20;;;;;;5033695;28;20538;-80
2021/12/27 09:40:23;;;;;;;8.67;6.10;;;11.60;48.10;;;;;;5033427;28;20486;-80
2021/12/27 09:42:52;;;;;;;9.10;5.73;;;11.70;48.20;;;;;;5033148;28;20483;-80
2021/12/27 09:45:20;;;;;;;10.03;6.27;;;11.70;48.20;;;;;;5027913;28;20479;-80
2021/12/27 09:47:50;;;;;;;8.63;6.33;;;11.70;48.10;;;;;;5025520;28;20436;-80
2021/12/27 09:50:21;;;;;;;10.63;6.27;;;11.80;48.20;;;;;;5025752;27;20954;-80
2021/12/27 09:52:49;;;;;;;8.00;5.77;;;11.80;48.20;;;;;;5023663;28;20538;-79
2021/12/27 09:55:18;;;;;;;10.77;6.10;;;11.80;48.10;;;;;;5023893;28;20534;-79
2021/12/27 09:57:46;;;;;;;8.77;6.00;;;11.80;48.00;;;;;;5023891;28;20459;-80
2021/12/27 10:00:16;;;;;;;8.87;6.40;;;11.80;48.10;;;;;;5021350;27;20465;-80
2021/12/27 10:02:45;;;;;;;9.20;5.97;;;11.90;48.10;;;;;;5029839;28;20467;-80
2021/12/27 10:05:14;;;;;;;7.80;6.10;;;11.90;48.00;;;;;;5031760;28;20480;-80
2021/12/27 10:07:42;;;;;;;10.00;6.53;;;11.90;48.00;;;;;;5033143;28;20443;-80
2021/12/27 10:10:23;;;;;;;9.53;6.20;;;11.90;48.10;;;;;;5033272;28;20475;-80
2021/12/27 10:12:51;;;;;;;9.03;6.17;;;11.90;48.00;;;;;;5032842;28;20508;-79
2021/12/27 10:15:21;;;;;;;10.27;6.13;;;11.90;48.00;;;;;;5032758;28;20455;-80
2021/12/27 10:17:49;;;;;;;7.60;6.03;;;12.00;48.10;;;;;;5022544;28;20459;-80
2021/12/27 10:20:18;;;;;;;8.63;6.67;;;12.00;48.10;;;;;;5023535;28;20488;-80
2021/12/27 10:22:48;;;;;;;6.97;5.40;;;12.00;48.20;;;;;;5021212;28;20449;-80
2021/12/27 10:25:17;;;;;;;8.90;5.93;;;12.00;48.10;;;;;;5022997;28;20462;-80
2021/12/27 10:27:47;;;;;;;8.57;6.53;;;11.90;48.00;;;;;;5023868;28;20527;-80
2021/12/27 10:30:17;;;;;;;9.07;6.53;;;11.90;48.10;;;;;;5012412;28;20448;-80
2021/12/27 10:32:45;;;;;;;11.57;6.80;;;11.90;48.10;;;;;;5012157;28;20504;-80
2021/12/27 10:35:13;;;;;;;11.43;6.90;;;12.00;48.20;;;;;;5020212;28;20550;-80
2021/12/27 10:37:50;;;;;;;8.50;5.93;;;12.00;48.20;;;;;;5026245;28;20459;-80
2021/12/27 10:40:19;;;;;;;8.93;6.53;;;12.00;48.20;;;;;;5020234;28;20481;-80
2021/12/27 10:42:50;;;;;;;11.10;6.60;;;12.00;48.30;;;;;;5019590;28;20505;-80
2021/12/27 10:45:24;;;;;;;9.67;6.70;;;12.00;48.10;;;;;;5021449;28;20471;-80
2021/12/27 10:47:53;;;;;;;8.23;6.10;;;12.00;48.10;;;;;;5021310;28;20486;-80
2021/12/27 10:50:23;;;;;;;8.03;6.53;;;12.00;48.20;;;;;;5022612;28;20479;-80
2021/12/27 10:52:56;;;;;;;8.20;6.30;;;12.10;48.30;;;;;;5023822;28;20464;-80
2021/12/27 10:55:27;;;;;;;10.87;7.20;;;12.10;48.30;;;;;;5021405;28;20498;-80
2021/12/27 10:58:10;;;;;;;9.90;6.60;;;12.10;48.20;;;;;;5020646;28;20453;-80
2021/12/27 11:00:38;;;;;;;10.10;6.50;;;12.10;48.20;;;;;;5020745;28;20505;-80
2021/12/27 11:03:06;;;;;;;10.53;6.63;;;12.20;48.20;;;;;;5019899;27;20480;-80
2021/12/27 11:05:36;;;;;;;8.80;6.30;;;12.20;48.20;;;;;;5021771;28;20463;-80
2021/12/27 11:08:05;;;;;;;10.77;6.83;;;12.20;48.20;;;;;;5022477;28;20490;-80
2021/12/27 11:10:35;;;;;;;8.50;5.97;;;12.20;48.20;;;;;;5023038;28;20509;-79
2021/12/27 11:13:04;;;;;;;9.30;6.27;;;12.20;48.20;;;;;;5021027;27;20520;-79
2021/12/27 11:15:34;;;;;;;10.60;6.33;;;12.20;48.30;;;;;;5025868;27;20488;-79
2021/12/27 11:18:03;;;;;;;9.60;6.93;;;12.20;48.30;;;;;;5024004;28;20432;-80
2021/12/27 11:20:31;;;;;;;13.10;7.40;;;12.20;48.30;;;;;;5022638;28;20527;-80
2021/12/27 11:22:59;;;;;;;10.20;6.87;;;12.20;48.30;;;;;;5013696;28;20539;-80
2021/12/27 11:25:30;;;;;;;8.10;6.23;;;12.20;48.20;;;;;;5017794;28;20478;-80
2021/12/27 11:27:58;;;;;;;9.53;6.97;;;12.20;48.20;;;;;;5029778;28;20508;-81
2021/12/27 11:30:28;;;;;;;10.47;7.37;;;12.30;48.40;;;;;;5034625;28;20482;-80
2021/12/27 11:33:04;;;;;;;11.87;6.77;;;12.20;48.30;;;;;;5034951;28;20454;-80
2021/12/27 11:35:39;;;;;;;10.10;6.43;;;12.30;48.40;;;;;;5022177;28;20535;-82
2021/12/27 11:38:07;;;;;;;10.77;6.93;;;12.30;48.40;;;;;;5015680;28;20436;-81
2021/12/27 11:40:43;;;;;;;9.13;6.73;;;12.30;48.40;;;;;;5013305;28;20540;-80
2021/12/27 11:43:11;;;;;;;10.87;7.30;;;12.40;48.50;;;;;;5025553;28;20455;-81
2021/12/27 11:45:45;;;;;;;8.50;6.50;;;12.40;48.50;;;;;;5032606;28;20491;-81
2021/12/27 11:48:25;;;;;;;10.37;6.73;;;12.40;48.40;;;;;;5035510;27;20451;-82
2021/12/27 11:51:09;;;;;;;12.73;7.43;;;12.50;48.40;;;;;;5036651;27;20448;-82
2021/12/27 11:53:43;;;;;;;9.17;6.60;;;12.50;48.30;;;;;;5035264;27;20478;-81
2021/12/27 11:56:16;;;;;;;10.70;6.17;;;12.50;48.30;;;;;;5035020;28;20491;-82
2021/12/27 11:58:45;;;;;;;10.30;6.80;;;12.60;48.40;;;;;;5035825;28;20447;-83
2021/12/27 12:01:35;;;;;;;10.40;6.47;;;12.60;48.40;;;;;;5033166;28;20444;-81
2021/12/27 12:04:05;;;;;;;12.80;7.00;;;12.60;48.50;;;;;;5034229;28;20558;-81
2021/12/27 12:06:37;;;;;;;9.70;6.80;;;12.60;48.40;;;;;;5035108;27;20454;-80
2021/12/27 12:09:10;;;;;;;10.40;6.90;;;12.60;48.50;;;;;;5033693;27;20534;-82
2021/12/27 12:11:38;;;;;;;10.60;6.57;;;12.60;48.30;;;;;;5022271;28;20450;-82
2021/12/27 12:14:31;;;;;;;8.93;6.20;;;12.60;48.30;;;;;;5031182;28;20530;-81
2021/12/27 12:17:00;;;;;;;10.47;6.80;;;12.70;48.20;;;;;;5023965;28;20449;-82
2021/12/27 12:19:44;;;;;;;22.57;8.17;;;12.70;48.30;;;;;;5019236;28;20448;-81
2021/12/27 12:22:31;;;;;;;10.60;7.40;;;12.70;48.30;;;;;;5022047;28;20460;-81
2021/12/27 12:25:13;;;;;;;13.07;7.57;;;12.70;48.10;;;;;;5024121;28;20908;-82
2021/12/27 12:27:52;;;;;;;9.50;7.20;;;12.70;48.20;;;;;;5024631;28;20428;-82
2021/12/27 12:30:20;;;;;;;11.10;7.70;;;12.70;48.20;;;;;;5027830;28;20492;-82
2021/12/27 12:32:58;;;;;;;12.37;7.60;;;12.70;48.20;;;;;;5028095;28;21021;-82
2021/12/27 12:35:38;;;;;;;12.10;8.17;;;12.60;48.10;;;;;;5028963;28;20471;-82
2021/12/27 12:38:14;;;;;;;11.90;7.70;;;12.60;48.10;;;;;;5030398;28;20436;-81
2021/12/27 12:40:42;;;;;;;10.93;7.40;;;12.60;48.10;;;;;;5027415;28;20506;-82
2021/12/27 12:43:10;;;;;;;13.50;8.33;;;12.60;48.10;;;;;;5025775;28;20527;-82
2021/12/27 12:45:38;;;;;;;10.30;7.50;;;12.60;48.20;;;;;;5027217;28;20570;-81
2021/12/27 12:48:07;;;;;;;12.40;8.43;;;12.60;48.10;;;;;;5027655;28;20440;-81
2021/12/27 12:50:36;;;;;;;13.00;8.20;;;12.50;48.10;;;;;;5026164;27;20519;-82
2021/12/27 12:53:05;;;;;;;11.77;8.20;;;12.50;48.10;;;;;;5032535;28;20451;-82
2021/12/27 12:55:38;;;;;;;15.63;9.00;;;12.60;48.20;;;;;;5025405;28;20477;-82
2021/12/27 12:58:06;;;;;;;15.77;8.90;;;12.50;48.10;;;;;;5025431;28;20428;-82
2021/12/27 13:00:35;;;;;;;14.63;8.80;;;12.50;48.10;;;;;;5025918;27;20539;-82
2021/12/27 13:03:10;;;;;;;15.93;9.67;;;12.50;48.00;;;;;;5028407;28;20428;-82
2021/12/27 13:05:40;;;;;;;14.67;8.90;;;12.50;48.00;;;;;;5015420;28;20484;-81
2021/12/27 13:08:11;;;;;;;14.10;9.03;;;12.50;48.00;;;;;;5019486;28;20459;-82